WMT411 LIEA-LROP
Flight info
| Callsign | WMT411 |
|---|---|
| Flight time | 1h 54m |
| Altitude | 36000 |
| Route | ORVEX DCT KOLUS DCT GITRI DCT ABIDU DCT ESINO DCT ASPIR DCT TIXIR DCT UTAPO DCT XOLTA/N0443F350 DCT BUNEX DCT BAJUN DCT NISVA DCT SOMOV DCT SORDU |
| Aircraft | A321/M-SDE1E2E3FGIJ1J4RWXY/LB1 |
Departure
| Time | 2026-05-09 05:39 |
|---|---|
| Airport | Alghero-Fertilia Airport (LIEA) |
Arrival
| Time | 2026-05-09 07:33 |
|---|---|
| Airport | Bucharest Henri Coandă International Airport (LROP) |
| Time | Latitude | Longitude | Altitude | Speed | Heading |
|---|---|---|---|---|---|
| 2026-05-09 05:36 | 40.61931 | 8.28448 | 70 ft | 0 kts | 289° |
| 2026-05-09 05:37 | 40.61933 | 8.28441 | 70 ft | 2 kts | 291° |
| 2026-05-09 05:37 | 40.61962 | 8.28395 | 70 ft | 9 kts | 321° |
| 2026-05-09 05:38 | 40.62020 | 8.28373 | 62 ft | 8 kts | 6° |
| 2026-05-09 05:38 | 40.62068 | 8.28393 | 72 ft | 5 kts | 23° |
| 2026-05-09 05:38 | 40.62123 | 8.28426 | 64 ft | 36 kts | 24° |
| 2026-05-09 05:38 | 40.62586 | 8.28702 | 69 ft | 107 kts | 24° |
| 2026-05-09 05:39 | 40.63442 | 8.29215 | 89 ft | 161 kts | 24° |
| 2026-05-09 05:39 | 40.64510 | 8.29855 | 625 ft | 166 kts | 25° |
| 2026-05-09 05:39 | 40.65558 | 8.30490 | 1320 ft | 166 kts | 27° |
| 2026-05-09 05:39 | 40.66645 | 8.31154 | 1686 ft | 182 kts | 27° |
| 2026-05-09 05:40 | 40.67867 | 8.31900 | 1884 ft | 205 kts | 26° |
| 2026-05-09 05:40 | 40.69231 | 8.32727 | 2061 ft | 227 kts | 26° |
| 2026-05-09 05:40 | 40.70750 | 8.33645 | 2268 ft | 253 kts | 26° |
| 2026-05-09 05:40 | 40.72382 | 8.34628 | 2889 ft | 261 kts | 26° |
| 2026-05-09 05:41 | 40.74039 | 8.35621 | 3701 ft | 263 kts | 26° |
| 2026-05-09 05:41 | 40.75715 | 8.36625 | 4469 ft | 266 kts | 26° |
| 2026-05-09 05:41 | 40.77391 | 8.37704 | 5199 ft | 270 kts | 33° |
| 2026-05-09 05:41 | 40.78833 | 8.39295 | 5905 ft | 273 kts | 50° |
| 2026-05-09 05:42 | 40.79879 | 8.41393 | 6576 ft | 277 kts | 66° |
| 2026-05-09 05:42 | 40.80555 | 8.43809 | 7201 ft | 283 kts | 71° |
| 2026-05-09 05:42 | 40.81211 | 8.46286 | 7842 ft | 288 kts | 70° |
| 2026-05-09 05:42 | 40.81880 | 8.48806 | 8468 ft | 294 kts | 70° |
| 2026-05-09 05:43 | 40.82566 | 8.51377 | 9127 ft | 300 kts | 70° |
| 2026-05-09 05:43 | 40.83267 | 8.53999 | 9761 ft | 306 kts | 70° |
| 2026-05-09 05:43 | 40.83971 | 8.56683 | 10262 ft | 316 kts | 73° |
| 2026-05-09 05:43 | 40.84118 | 8.59651 | 10402 ft | 337 kts | 101° |
| 2026-05-09 05:44 | 40.83389 | 8.62670 | 10554 ft | 355 kts | 117° |
| 2026-05-09 05:44 | 40.82113 | 8.65498 | 11016 ft | 361 kts | 129° |
| 2026-05-09 05:44 | 40.80485 | 8.68035 | 11590 ft | 365 kts | 134° |
| 2026-05-09 05:44 | 40.78783 | 8.70548 | 12196 ft | 370 kts | 134° |
| 2026-05-09 05:45 | 40.77062 | 8.73100 | 12806 ft | 374 kts | 134° |
| 2026-05-09 05:45 | 40.75342 | 8.75637 | 13393 ft | 378 kts | 134° |
| 2026-05-09 05:45 | 40.73548 | 8.78259 | 13973 ft | 382 kts | 135° |
| 2026-05-09 05:45 | 40.71749 | 8.80867 | 14532 ft | 386 kts | 135° |
| 2026-05-09 05:46 | 40.70093 | 8.83679 | 15074 ft | 392 kts | 123° |
| 2026-05-09 05:46 | 40.68916 | 8.86883 | 15626 ft | 397 kts | 110° |
| 2026-05-09 05:46 | 40.68275 | 8.90438 | 16186 ft | 402 kts | 97° |
| 2026-05-09 05:46 | 40.68228 | 8.94126 | 16746 ft | 405 kts | 84° |
| 2026-05-09 05:47 | 40.68515 | 8.97827 | 17314 ft | 408 kts | 84° |
| 2026-05-09 05:47 | 40.68799 | 9.01555 | 17877 ft | 410 kts | 84° |
| 2026-05-09 05:47 | 40.69077 | 9.05310 | 18428 ft | 413 kts | 84° |
| 2026-05-09 05:47 | 40.69352 | 9.09093 | 18899 ft | 417 kts | 84° |
| 2026-05-09 05:48 | 40.69624 | 9.12919 | 19326 ft | 421 kts | 84° |
| 2026-05-09 05:48 | 40.69898 | 9.16781 | 19769 ft | 425 kts | 84° |
| 2026-05-09 05:48 | 40.70174 | 9.20679 | 20221 ft | 430 kts | 84° |
| 2026-05-09 05:48 | 40.70450 | 9.24618 | 20670 ft | 434 kts | 84° |
| 2026-05-09 05:49 | 40.70729 | 9.28599 | 21126 ft | 438 kts | 84° |
| 2026-05-09 05:49 | 40.71009 | 9.32603 | 21571 ft | 442 kts | 85° |
| 2026-05-09 05:49 | 40.71291 | 9.36655 | 22004 ft | 446 kts | 85° |
| 2026-05-09 05:49 | 40.71579 | 9.40743 | 22434 ft | 450 kts | 84° |
| 2026-05-09 05:50 | 40.72139 | 9.44807 | 22844 ft | 453 kts | 74° |
| 2026-05-09 05:50 | 40.73161 | 9.48744 | 23224 ft | 456 kts | 66° |
| 2026-05-09 05:50 | 40.74327 | 9.52645 | 23632 ft | 459 kts | 66° |
| 2026-05-09 05:50 | 40.75499 | 9.56585 | 23962 ft | 463 kts | 67° |
| 2026-05-09 05:51 | 40.76670 | 9.60553 | 24310 ft | 466 kts | 67° |
| 2026-05-09 05:51 | 40.77844 | 9.64545 | 24645 ft | 468 kts | 67° |
| 2026-05-09 05:51 | 40.79025 | 9.68567 | 24987 ft | 471 kts | 67° |
| 2026-05-09 05:51 | 40.80195 | 9.72551 | 25325 ft | 473 kts | 67° |
| 2026-05-09 05:52 | 40.81386 | 9.76617 | 25657 ft | 476 kts | 67° |
| 2026-05-09 05:52 | 40.82577 | 9.80700 | 25981 ft | 479 kts | 67° |
| 2026-05-09 05:52 | 40.83776 | 9.84816 | 26296 ft | 481 kts | 67° |
| 2026-05-09 05:52 | 40.84978 | 9.88947 | 26617 ft | 484 kts | 67° |
| 2026-05-09 05:53 | 40.86187 | 9.93108 | 26941 ft | 486 kts | 67° |
| 2026-05-09 05:53 | 40.87399 | 9.97289 | 27247 ft | 489 kts | 67° |
| 2026-05-09 05:53 | 40.88619 | 10.01495 | 27562 ft | 491 kts | 67° |
| 2026-05-09 05:53 | 40.89843 | 10.05720 | 27864 ft | 494 kts | 67° |
| 2026-05-09 05:54 | 40.91070 | 10.09965 | 28201 ft | 496 kts | 66° |
| 2026-05-09 05:54 | 40.92302 | 10.14234 | 28492 ft | 498 kts | 66° |
| 2026-05-09 05:54 | 40.93539 | 10.18527 | 28783 ft | 501 kts | 66° |
| 2026-05-09 05:54 | 40.94781 | 10.22842 | 29055 ft | 503 kts | 66° |
| 2026-05-09 05:55 | 40.96031 | 10.27183 | 29329 ft | 506 kts | 66° |
| 2026-05-09 05:55 | 40.97285 | 10.31541 | 29616 ft | 508 kts | 66° |
| 2026-05-09 05:55 | 40.98545 | 10.35922 | 29890 ft | 510 kts | 66° |
| 2026-05-09 05:55 | 40.99807 | 10.40322 | 30157 ft | 513 kts | 66° |
| 2026-05-09 05:56 | 41.01070 | 10.44744 | 30402 ft | 515 kts | 66° |
| 2026-05-09 05:56 | 41.02338 | 10.49194 | 30633 ft | 518 kts | 66° |
| 2026-05-09 05:56 | 41.03609 | 10.53656 | 30956 ft | 518 kts | 66° |
| 2026-05-09 05:56 | 41.04877 | 10.58120 | 31260 ft | 518 kts | 66° |
| 2026-05-09 05:57 | 41.06139 | 10.62587 | 31563 ft | 518 kts | 66° |
| 2026-05-09 05:57 | 41.07398 | 10.67059 | 31883 ft | 519 kts | 66° |
| 2026-05-09 05:57 | 41.08663 | 10.71542 | 32171 ft | 519 kts | 66° |
| 2026-05-09 05:57 | 41.09932 | 10.76026 | 32467 ft | 520 kts | 66° |
| 2026-05-09 05:58 | 41.11197 | 10.80520 | 32765 ft | 520 kts | 66° |
| 2026-05-09 05:58 | 41.12459 | 10.85021 | 33059 ft | 521 kts | 66° |
| 2026-05-09 05:58 | 41.13723 | 10.89519 | 33360 ft | 521 kts | 66° |
| 2026-05-09 05:58 | 41.14986 | 10.94026 | 33653 ft | 521 kts | 66° |
| 2026-05-09 05:59 | 41.16245 | 10.98531 | 33939 ft | 521 kts | 66° |
| 2026-05-09 05:59 | 41.17504 | 11.03045 | 34214 ft | 522 kts | 66° |
| 2026-05-09 05:59 | 41.18761 | 11.07563 | 34465 ft | 521 kts | 66° |
| 2026-05-09 05:59 | 41.20015 | 11.12078 | 34721 ft | 521 kts | 66° |
| 2026-05-09 06:00 | 41.21266 | 11.16598 | 34976 ft | 521 kts | 66° |
| 2026-05-09 06:00 | 41.22513 | 11.21112 | 35233 ft | 521 kts | 66° |
| 2026-05-09 06:00 | 41.23763 | 11.25635 | 35494 ft | 521 kts | 66° |
| 2026-05-09 06:00 | 41.25010 | 11.30153 | 35743 ft | 521 kts | 66° |
| 2026-05-09 06:01 | 41.26240 | 11.34611 | 35986 ft | 521 kts | 65° |
| 2026-05-09 06:01 | 41.27485 | 11.39130 | 36068 ft | 520 kts | 65° |
| 2026-05-09 06:01 | 41.29957 | 11.48151 | 36085 ft | 518 kts | 65° |
| 2026-05-09 06:02 | 41.32422 | 11.57162 | 36090 ft | 518 kts | 65° |
| 2026-05-09 06:02 | 41.34880 | 11.66184 | 36092 ft | 522 kts | 65° |
| 2026-05-09 06:03 | 41.37373 | 11.75375 | 36088 ft | 532 kts | 65° |
| 2026-05-09 06:03 | 41.40491 | 11.84229 | 36095 ft | 526 kts | 54° |
| 2026-05-09 06:04 | 41.44120 | 11.92688 | 36098 ft | 526 kts | 54° |
| 2026-05-09 06:04 | 41.47737 | 12.01182 | 36098 ft | 527 kts | 54° |
| 2026-05-09 06:05 | 41.51342 | 12.09683 | 36099 ft | 526 kts | 54° |
| 2026-05-09 06:05 | 41.54946 | 12.18193 | 36147 ft | 527 kts | 54° |
| 2026-05-09 06:06 | 41.58540 | 12.26714 | 36118 ft | 527 kts | 54° |
| 2026-05-09 06:06 | 41.62120 | 12.35257 | 36111 ft | 527 kts | 54° |
| 2026-05-09 06:07 | 41.65696 | 12.43806 | 36113 ft | 527 kts | 54° |
| 2026-05-09 06:07 | 41.69263 | 12.52352 | 36107 ft | 526 kts | 54° |
| 2026-05-09 06:08 | 41.72819 | 12.60891 | 36125 ft | 524 kts | 54° |
| 2026-05-09 06:08 | 41.76325 | 12.69336 | 36114 ft | 522 kts | 54° |
| 2026-05-09 06:09 | 41.79852 | 12.77842 | 36118 ft | 522 kts | 53° |
| 2026-05-09 06:09 | 41.83379 | 12.86358 | 36142 ft | 522 kts | 53° |
| 2026-05-09 06:10 | 41.86892 | 12.94882 | 36147 ft | 522 kts | 54° |
| 2026-05-09 06:10 | 41.90393 | 13.03420 | 36163 ft | 522 kts | 54° |
| 2026-05-09 06:11 | 41.93887 | 13.11951 | 36159 ft | 522 kts | 54° |
| 2026-05-09 06:11 | 41.97372 | 13.20484 | 36164 ft | 520 kts | 54° |
| 2026-05-09 06:12 | 42.00847 | 13.29015 | 36157 ft | 520 kts | 53° |
| 2026-05-09 06:12 | 42.04309 | 13.37545 | 36162 ft | 520 kts | 54° |
| 2026-05-09 06:13 | 42.07771 | 13.46088 | 36163 ft | 520 kts | 54° |
| 2026-05-09 06:13 | 42.11225 | 13.54636 | 36152 ft | 519 kts | 54° |
| 2026-05-09 06:14 | 42.14664 | 13.63192 | 36154 ft | 519 kts | 54° |
| 2026-05-09 06:14 | 42.18092 | 13.71751 | 36150 ft | 519 kts | 54° |
| 2026-05-09 06:15 | 42.21575 | 13.80231 | 36106 ft | 513 kts | 51° |
| 2026-05-09 06:15 | 42.25190 | 13.88517 | 36109 ft | 512 kts | 51° |
| 2026-05-09 06:16 | 42.28825 | 13.96799 | 36117 ft | 514 kts | 51° |
| 2026-05-09 06:16 | 42.32422 | 14.05148 | 36124 ft | 515 kts | 52° |
| 2026-05-09 06:17 | 42.35985 | 14.13541 | 36158 ft | 514 kts | 53° |
| 2026-05-09 06:17 | 42.38708 | 14.22565 | 36112 ft | 524 kts | 68° |
| 2026-05-09 06:18 | 42.40734 | 14.32033 | 36132 ft | 524 kts | 68° |
| 2026-05-09 06:18 | 42.42766 | 14.41500 | 36130 ft | 524 kts | 68° |
| 2026-05-09 06:19 | 42.44790 | 14.50976 | 36130 ft | 524 kts | 68° |
| 2026-05-09 06:19 | 42.46805 | 14.60447 | 36124 ft | 524 kts | 68° |
| 2026-05-09 06:20 | 42.48805 | 14.69871 | 36142 ft | 523 kts | 69° |
| 2026-05-09 06:20 | 42.50799 | 14.79345 | 36123 ft | 523 kts | 69° |
| 2026-05-09 06:21 | 42.52782 | 14.88809 | 36120 ft | 522 kts | 69° |
| 2026-05-09 06:21 | 42.54760 | 14.98271 | 36125 ft | 520 kts | 70° |
| 2026-05-09 06:22 | 42.56715 | 15.07701 | 36119 ft | 518 kts | 70° |
| 2026-05-09 06:22 | 42.58648 | 15.17098 | 36116 ft | 517 kts | 70° |
| 2026-05-09 06:23 | 42.60584 | 15.26487 | 36133 ft | 516 kts | 70° |
| 2026-05-09 06:23 | 42.62504 | 15.35852 | 36123 ft | 514 kts | 72° |
| 2026-05-09 06:24 | 42.64401 | 15.45176 | 36118 ft | 511 kts | 71° |
| 2026-05-09 06:24 | 42.65988 | 15.52962 | 36116 ft | 510 kts | 72° |
| 2026-05-09 06:25 | 42.67854 | 15.62186 | 36114 ft | 509 kts | 72° |
| 2026-05-09 06:25 | 42.69717 | 15.71456 | 36115 ft | 508 kts | 72° |
| 2026-05-09 06:26 | 42.71439 | 15.80770 | 36109 ft | 508 kts | 75° |
| 2026-05-09 06:26 | 42.72841 | 15.90175 | 36094 ft | 505 kts | 78° |
| 2026-05-09 06:27 | 42.74131 | 15.99531 | 36092 ft | 502 kts | 77° |
| 2026-05-09 06:27 | 42.75480 | 16.08847 | 36097 ft | 502 kts | 77° |
| 2026-05-09 06:28 | 42.76884 | 16.18141 | 36099 ft | 501 kts | 77° |
| 2026-05-09 06:28 | 42.78285 | 16.27432 | 36093 ft | 501 kts | 77° |
| 2026-05-09 06:29 | 42.79655 | 16.36733 | 36098 ft | 501 kts | 77° |
| 2026-05-09 06:29 | 42.81001 | 16.46033 | 36098 ft | 500 kts | 77° |
| 2026-05-09 06:30 | 42.82347 | 16.55308 | 36105 ft | 499 kts | 77° |
| 2026-05-09 06:30 | 42.83683 | 16.64578 | 36098 ft | 498 kts | 78° |
| 2026-05-09 06:31 | 42.84955 | 16.73433 | 35990 ft | 496 kts | 78° |
| 2026-05-09 06:31 | 42.85608 | 16.78032 | 35736 ft | 494 kts | 78° |
| 2026-05-09 06:31 | 42.86258 | 16.82622 | 35491 ft | 492 kts | 78° |
| 2026-05-09 06:32 | 42.86906 | 16.87202 | 35243 ft | 491 kts | 78° |
| 2026-05-09 06:32 | 42.87553 | 16.91768 | 35034 ft | 490 kts | 78° |
| 2026-05-09 06:33 | 42.89488 | 17.05471 | 35057 ft | 491 kts | 78° |
| 2026-05-09 06:33 | 42.90771 | 17.14606 | 35065 ft | 490 kts | 78° |
| 2026-05-09 06:34 | 42.92664 | 17.28330 | 35067 ft | 491 kts | 78° |
| 2026-05-09 06:34 | 42.93916 | 17.37497 | 35065 ft | 492 kts | 78° |
| 2026-05-09 06:35 | 42.95171 | 17.46664 | 35063 ft | 491 kts | 78° |
| 2026-05-09 06:35 | 42.96423 | 17.55837 | 35061 ft | 491 kts | 78° |
| 2026-05-09 06:36 | 42.97661 | 17.65018 | 35063 ft | 491 kts | 78° |
| 2026-05-09 06:36 | 42.98892 | 17.74198 | 35065 ft | 492 kts | 78° |
| 2026-05-09 06:37 | 43.00113 | 17.83378 | 35061 ft | 492 kts | 78° |
| 2026-05-09 06:37 | 43.01326 | 17.92583 | 35059 ft | 492 kts | 78° |
| 2026-05-09 06:38 | 43.02535 | 18.01794 | 35061 ft | 493 kts | 78° |
| 2026-05-09 06:38 | 43.03741 | 18.11012 | 35060 ft | 493 kts | 78° |
| 2026-05-09 06:39 | 43.04941 | 18.20240 | 35064 ft | 493 kts | 78° |
| 2026-05-09 06:39 | 43.06128 | 18.29464 | 35067 ft | 493 kts | 79° |
| 2026-05-09 06:40 | 43.07316 | 18.38696 | 35068 ft | 493 kts | 79° |
| 2026-05-09 06:40 | 43.08490 | 18.47930 | 35067 ft | 493 kts | 79° |
| 2026-05-09 06:41 | 43.09656 | 18.57182 | 35072 ft | 494 kts | 79° |
| 2026-05-09 06:41 | 43.10818 | 18.66446 | 35075 ft | 494 kts | 79° |
| 2026-05-09 06:42 | 43.11969 | 18.75659 | 35078 ft | 494 kts | 79° |
| 2026-05-09 06:42 | 43.13115 | 18.84930 | 35087 ft | 494 kts | 79° |
| 2026-05-09 06:43 | 43.14256 | 18.94208 | 35087 ft | 494 kts | 79° |
| 2026-05-09 06:43 | 43.15389 | 19.03484 | 35088 ft | 494 kts | 79° |
| 2026-05-09 06:44 | 43.16521 | 19.12762 | 35092 ft | 494 kts | 79° |
| 2026-05-09 06:44 | 43.17637 | 19.22026 | 35096 ft | 492 kts | 79° |
| 2026-05-09 06:45 | 43.18700 | 19.31293 | 35097 ft | 493 kts | 81° |
| 2026-05-09 06:45 | 43.19428 | 19.40633 | 35100 ft | 493 kts | 84° |
| 2026-05-09 06:46 | 43.19956 | 19.50006 | 35100 ft | 493 kts | 84° |
| 2026-05-09 06:46 | 43.20520 | 19.59369 | 35097 ft | 493 kts | 84° |
| 2026-05-09 06:47 | 43.21148 | 19.68722 | 35101 ft | 493 kts | 83° |
| 2026-05-09 06:47 | 43.21786 | 19.78082 | 35101 ft | 493 kts | 83° |
| 2026-05-09 06:48 | 43.22400 | 19.87429 | 35100 ft | 492 kts | 84° |
| 2026-05-09 06:48 | 43.22996 | 19.96782 | 35100 ft | 493 kts | 84° |
| 2026-05-09 06:49 | 43.23592 | 20.06158 | 35101 ft | 494 kts | 84° |
| 2026-05-09 06:49 | 43.24184 | 20.15541 | 35095 ft | 494 kts | 84° |
| 2026-05-09 06:50 | 43.24764 | 20.24924 | 35091 ft | 494 kts | 84° |
| 2026-05-09 06:50 | 43.25336 | 20.34309 | 35092 ft | 494 kts | 84° |
| 2026-05-09 06:51 | 43.25902 | 20.43623 | 35092 ft | 493 kts | 84° |
| 2026-05-09 06:51 | 43.26721 | 20.52961 | 35092 ft | 493 kts | 79° |
| 2026-05-09 06:52 | 43.27921 | 20.62211 | 35088 ft | 492 kts | 78° |
| 2026-05-09 06:52 | 43.29150 | 20.71458 | 35084 ft | 493 kts | 79° |
| 2026-05-09 06:53 | 43.30268 | 20.80752 | 35089 ft | 494 kts | 80° |
| 2026-05-09 06:53 | 43.31319 | 20.90072 | 35089 ft | 494 kts | 80° |
| 2026-05-09 06:54 | 43.32378 | 20.99392 | 35087 ft | 494 kts | 80° |
| 2026-05-09 06:54 | 43.33443 | 21.08705 | 35085 ft | 493 kts | 80° |
| 2026-05-09 06:55 | 43.34505 | 21.18016 | 35086 ft | 493 kts | 80° |
| 2026-05-09 06:55 | 43.35556 | 21.27321 | 35087 ft | 493 kts | 80° |
| 2026-05-09 06:56 | 43.36603 | 21.36651 | 35081 ft | 495 kts | 80° |
| 2026-05-09 06:56 | 43.37642 | 21.45997 | 35085 ft | 495 kts | 80° |
| 2026-05-09 06:57 | 43.38673 | 21.55359 | 35081 ft | 495 kts | 80° |
| 2026-05-09 06:57 | 43.39698 | 21.64716 | 35082 ft | 495 kts | 81° |
| 2026-05-09 06:58 | 43.40718 | 21.74066 | 35084 ft | 495 kts | 81° |
| 2026-05-09 06:58 | 43.41727 | 21.83430 | 35083 ft | 495 kts | 81° |
| 2026-05-09 06:59 | 43.42725 | 21.92798 | 35084 ft | 495 kts | 81° |
| 2026-05-09 06:59 | 43.43713 | 22.02114 | 35086 ft | 496 kts | 81° |
| 2026-05-09 07:00 | 43.44706 | 22.11513 | 35068 ft | 496 kts | 81° |
| 2026-05-09 07:00 | 43.45692 | 22.20917 | 35084 ft | 496 kts | 81° |
| 2026-05-09 07:01 | 43.46669 | 22.30318 | 35070 ft | 496 kts | 81° |
| 2026-05-09 07:01 | 43.47626 | 22.39718 | 35075 ft | 496 kts | 81° |
| 2026-05-09 07:02 | 43.48581 | 22.49115 | 35059 ft | 496 kts | 81° |
| 2026-05-09 07:02 | 43.49529 | 22.58519 | 35055 ft | 496 kts | 81° |
| 2026-05-09 07:03 | 43.50477 | 22.67934 | 35054 ft | 496 kts | 81° |
| 2026-05-09 07:03 | 43.51415 | 22.77350 | 35054 ft | 496 kts | 81° |
| 2026-05-09 07:04 | 43.52338 | 22.86773 | 35051 ft | 496 kts | 81° |
| 2026-05-09 07:04 | 43.53251 | 22.96178 | 35048 ft | 496 kts | 82° |
| 2026-05-09 07:05 | 43.54167 | 23.05593 | 35026 ft | 496 kts | 81° |
| 2026-05-09 07:05 | 43.55082 | 23.15003 | 35037 ft | 495 kts | 81° |
| 2026-05-09 07:06 | 43.55980 | 23.24404 | 35027 ft | 493 kts | 82° |
| 2026-05-09 07:06 | 43.56859 | 23.33770 | 35019 ft | 492 kts | 82° |
| 2026-05-09 07:07 | 43.57723 | 23.43066 | 35021 ft | 492 kts | 82° |
| 2026-05-09 07:07 | 43.58591 | 23.52428 | 35037 ft | 492 kts | 82° |
| 2026-05-09 07:08 | 43.59447 | 23.61777 | 35033 ft | 491 kts | 82° |
| 2026-05-09 07:08 | 43.60297 | 23.71113 | 35022 ft | 490 kts | 82° |
| 2026-05-09 07:09 | 43.61127 | 23.80344 | 34813 ft | 476 kts | 82° |
| 2026-05-09 07:09 | 43.61528 | 23.84842 | 34575 ft | 470 kts | 83° |
| 2026-05-09 07:09 | 43.61920 | 23.89285 | 34338 ft | 463 kts | 83° |
| 2026-05-09 07:10 | 43.62306 | 23.93684 | 34104 ft | 459 kts | 83° |
| 2026-05-09 07:10 | 43.62688 | 23.98047 | 33842 ft | 457 kts | 83° |
| 2026-05-09 07:10 | 43.63068 | 24.02382 | 33568 ft | 453 kts | 84° |
| 2026-05-09 07:10 | 43.63443 | 24.06668 | 33295 ft | 448 kts | 84° |
| 2026-05-09 07:11 | 43.63688 | 24.09484 | 33120 ft | 446 kts | 84° |
| 2026-05-09 07:11 | 43.64056 | 24.13723 | 32847 ft | 443 kts | 84° |
| 2026-05-09 07:11 | 43.64424 | 24.17935 | 32585 ft | 441 kts | 84° |
| 2026-05-09 07:11 | 43.64788 | 24.22115 | 32267 ft | 436 kts | 84° |
| 2026-05-09 07:12 | 43.65147 | 24.26267 | 31751 ft | 434 kts | 84° |
| 2026-05-09 07:12 | 43.65499 | 24.30384 | 31260 ft | 431 kts | 84° |
| 2026-05-09 07:12 | 43.65846 | 24.34478 | 30781 ft | 428 kts | 84° |
| 2026-05-09 07:12 | 43.66187 | 24.38546 | 30298 ft | 425 kts | 84° |
| 2026-05-09 07:13 | 43.66524 | 24.42596 | 29779 ft | 423 kts | 84° |
| 2026-05-09 07:13 | 43.66857 | 24.46608 | 29307 ft | 419 kts | 84° |
| 2026-05-09 07:13 | 43.67184 | 24.50583 | 28846 ft | 415 kts | 84° |
| 2026-05-09 07:13 | 43.67510 | 24.54519 | 28392 ft | 411 kts | 84° |
| 2026-05-09 07:14 | 43.67833 | 24.58423 | 27944 ft | 407 kts | 84° |
| 2026-05-09 07:14 | 43.68153 | 24.62301 | 27502 ft | 405 kts | 84° |
| 2026-05-09 07:14 | 43.68469 | 24.66147 | 27081 ft | 402 kts | 84° |
| 2026-05-09 07:14 | 43.68783 | 24.69970 | 26650 ft | 399 kts | 84° |
| 2026-05-09 07:15 | 43.69094 | 24.73776 | 26238 ft | 397 kts | 84° |
| 2026-05-09 07:15 | 43.69401 | 24.77553 | 25831 ft | 395 kts | 84° |
| 2026-05-09 07:15 | 43.69799 | 24.81298 | 25426 ft | 393 kts | 77° |
| 2026-05-09 07:15 | 43.70633 | 24.84870 | 25031 ft | 390 kts | 66° |
| 2026-05-09 07:16 | 43.71905 | 24.88152 | 24640 ft | 387 kts | 56° |
| 2026-05-09 07:16 | 43.73527 | 24.91102 | 24234 ft | 384 kts | 51° |
| 2026-05-09 07:16 | 43.75196 | 24.93971 | 23831 ft | 382 kts | 51° |
| 2026-05-09 07:16 | 43.76854 | 24.96828 | 23399 ft | 380 kts | 51° |
| 2026-05-09 07:17 | 43.78499 | 24.99672 | 22969 ft | 377 kts | 51° |
| 2026-05-09 07:17 | 43.80124 | 25.02488 | 22556 ft | 373 kts | 51° |
| 2026-05-09 07:17 | 43.81734 | 25.05282 | 22137 ft | 369 kts | 51° |
| 2026-05-09 07:17 | 43.83323 | 25.08049 | 21726 ft | 366 kts | 51° |
| 2026-05-09 07:18 | 43.84899 | 25.10797 | 21306 ft | 363 kts | 51° |
| 2026-05-09 07:18 | 43.86460 | 25.13519 | 20897 ft | 359 kts | 51° |
| 2026-05-09 07:18 | 43.88011 | 25.16218 | 20485 ft | 356 kts | 51° |
| 2026-05-09 07:18 | 43.89550 | 25.18895 | 20068 ft | 354 kts | 51° |
| 2026-05-09 07:19 | 43.91075 | 25.21553 | 19666 ft | 351 kts | 51° |
| 2026-05-09 07:19 | 43.92587 | 25.24196 | 19256 ft | 348 kts | 51° |
| 2026-05-09 07:19 | 43.94087 | 25.26823 | 18843 ft | 346 kts | 51° |
| 2026-05-09 07:19 | 43.95575 | 25.29428 | 18443 ft | 343 kts | 51° |
| 2026-05-09 07:20 | 43.97041 | 25.31976 | 17948 ft | 342 kts | 49° |
| 2026-05-09 07:20 | 43.98861 | 25.34155 | 16977 ft | 353 kts | 32° |
| 2026-05-09 07:20 | 44.00971 | 25.35987 | 16220 ft | 359 kts | 32° |
| 2026-05-09 07:20 | 44.03074 | 25.37791 | 15852 ft | 352 kts | 32° |
| 2026-05-09 07:21 | 44.05122 | 25.39546 | 15023 ft | 342 kts | 32° |
| 2026-05-09 07:21 | 44.07131 | 25.41272 | 14069 ft | 337 kts | 33° |
| 2026-05-09 07:21 | 44.09100 | 25.42970 | 13067 ft | 330 kts | 33° |
| 2026-05-09 07:21 | 44.11009 | 25.44622 | 12547 ft | 311 kts | 33° |
| 2026-05-09 07:22 | 44.12774 | 25.46149 | 12274 ft | 288 kts | 33° |
| 2026-05-09 07:22 | 44.14444 | 25.47596 | 11950 ft | 273 kts | 33° |
| 2026-05-09 07:22 | 44.16075 | 25.49018 | 11619 ft | 279 kts | 33° |
| 2026-05-09 07:22 | 44.17700 | 25.50437 | 11285 ft | 281 kts | 33° |
| 2026-05-09 07:23 | 44.19352 | 25.51878 | 10933 ft | 279 kts | 33° |
| 2026-05-09 07:23 | 44.20994 | 25.53306 | 10568 ft | 279 kts | 33° |
| 2026-05-09 07:23 | 44.22636 | 25.54735 | 10209 ft | 278 kts | 33° |
| 2026-05-09 07:23 | 44.24271 | 25.56157 | 10058 ft | 278 kts | 34° |
| 2026-05-09 07:24 | 44.25924 | 25.57599 | 9943 ft | 281 kts | 34° |
| 2026-05-09 07:24 | 44.27600 | 25.59063 | 9467 ft | 286 kts | 34° |
| 2026-05-09 07:24 | 44.29272 | 25.60523 | 9165 ft | 282 kts | 34° |
| 2026-05-09 07:24 | 44.30932 | 25.61969 | 8760 ft | 281 kts | 34° |
| 2026-05-09 07:25 | 44.32586 | 25.63411 | 8374 ft | 279 kts | 34° |
| 2026-05-09 07:25 | 44.34216 | 25.64833 | 7707 ft | 274 kts | 34° |
| 2026-05-09 07:25 | 44.35819 | 25.66234 | 7113 ft | 269 kts | 34° |
| 2026-05-09 07:25 | 44.37403 | 25.67626 | 6656 ft | 268 kts | 34° |
| 2026-05-09 07:26 | 44.38974 | 25.69010 | 6200 ft | 266 kts | 34° |
| 2026-05-09 07:26 | 44.40539 | 25.70386 | 5746 ft | 265 kts | 35° |
| 2026-05-09 07:26 | 44.42091 | 25.71753 | 5315 ft | 263 kts | 34° |
| 2026-05-09 07:26 | 44.43635 | 25.73113 | 4882 ft | 262 kts | 34° |
| 2026-05-09 07:27 | 44.45172 | 25.74464 | 4434 ft | 260 kts | 34° |
| 2026-05-09 07:27 | 44.46698 | 25.75805 | 4009 ft | 257 kts | 34° |
| 2026-05-09 07:27 | 44.48150 | 25.77080 | 3945 ft | 238 kts | 34° |
| 2026-05-09 07:27 | 44.49512 | 25.78275 | 3878 ft | 226 kts | 34° |
| 2026-05-09 07:28 | 44.50835 | 25.79439 | 3797 ft | 224 kts | 35° |
| 2026-05-09 07:28 | 44.52125 | 25.80578 | 3714 ft | 213 kts | 35° |
| 2026-05-09 07:28 | 44.53349 | 25.81699 | 3571 ft | 208 kts | 42° |
| 2026-05-09 07:28 | 44.54269 | 25.83196 | 3391 ft | 202 kts | 63° |
| 2026-05-09 07:29 | 44.54715 | 25.85033 | 3206 ft | 201 kts | 83° |
| 2026-05-09 07:29 | 44.54865 | 25.86971 | 2973 ft | 199 kts | 84° |
| 2026-05-09 07:29 | 44.55015 | 25.88889 | 2756 ft | 195 kts | 84° |
| 2026-05-09 07:29 | 44.55159 | 25.90739 | 2517 ft | 187 kts | 83° |
| 2026-05-09 07:30 | 44.55297 | 25.92507 | 2277 ft | 181 kts | 85° |
| 2026-05-09 07:30 | 44.55429 | 25.94208 | 2079 ft | 168 kts | 84° |
| 2026-05-09 07:30 | 44.55548 | 25.95729 | 1890 ft | 148 kts | 87° |
| 2026-05-09 07:30 | 44.55655 | 25.97106 | 1709 ft | 137 kts | 84° |
| 2026-05-09 07:31 | 44.55755 | 25.98418 | 1542 ft | 134 kts | 84° |
| 2026-05-09 07:31 | 44.55854 | 25.99708 | 1386 ft | 133 kts | 83° |
| 2026-05-09 07:31 | 44.55953 | 26.00991 | 1218 ft | 133 kts | 84° |
| 2026-05-09 07:31 | 44.56052 | 26.02279 | 1055 ft | 133 kts | 83° |
| 2026-05-09 07:32 | 44.56152 | 26.03583 | 891 ft | 134 kts | 84° |
| 2026-05-09 07:32 | 44.56252 | 26.04879 | 719 ft | 134 kts | 82° |
| 2026-05-09 07:32 | 44.56351 | 26.06181 | 559 ft | 133 kts | 84° |
| 2026-05-09 07:32 | 44.56451 | 26.07472 | 398 ft | 133 kts | 84° |
| 2026-05-09 07:33 | 44.56543 | 26.08725 | 322 ft | 116 kts | 84° |
| 2026-05-09 07:33 | 44.56642 | 26.10040 | 324 ft | 32 kts | 84° |
| 2026-05-09 07:33 | 44.56663 | 26.10337 | 323 ft | 29 kts | 83° |
| 2026-05-09 07:34 | 44.56688 | 26.10611 | 323 ft | 27 kts | 83° |
| 2026-05-09 07:34 | 44.56767 | 26.10759 | 322 ft | 20 kts | 1° |
| 2026-05-09 07:34 | 44.56907 | 26.10749 | 322 ft | 20 kts | 354° |
| 2026-05-09 07:34 | 44.57027 | 26.10652 | 322 ft | 21 kts | 305° |
| 2026-05-09 07:35 | 44.57061 | 26.10451 | 322 ft | 22 kts | 266° |
| 2026-05-09 07:35 | 44.57046 | 26.10230 | 322 ft | 23 kts | 264° |
| 2026-05-09 07:35 | 44.57027 | 26.09999 | 322 ft | 24 kts | 263° |
| 2026-05-09 07:35 | 44.57009 | 26.09758 | 322 ft | 25 kts | 265° |
| 2026-05-09 07:36 | 44.56989 | 26.09510 | 322 ft | 26 kts | 262° |
| 2026-05-09 07:36 | 44.56971 | 26.09254 | 322 ft | 27 kts | 264° |
| 2026-05-09 07:36 | 44.56951 | 26.08991 | 322 ft | 27 kts | 265° |
| 2026-05-09 07:36 | 44.56935 | 26.08752 | 322 ft | 23 kts | 264° |
| 2026-05-09 07:37 | 44.56909 | 26.08546 | 323 ft | 20 kts | 255° |
| 2026-05-09 07:37 | 44.56931 | 26.08382 | 323 ft | 16 kts | 292° |
| 2026-05-09 07:37 | 44.56943 | 26.08240 | 323 ft | 14 kts | 266° |
| 2026-05-09 07:37 | 44.56963 | 26.08147 | 322 ft | 9 kts | 335° |
| 2026-05-09 07:38 | 44.57013 | 26.08135 | 323 ft | 0 kts | 354° |